Time;durP1;ratioP1;P1;durP2;ratioP2;P2;SDS_P1;SDS_P2;PMS_P1;PMS_P2;Temp;Humidity;BMP_temperature;BMP_pressure;BME280_temperature;BME280_humidity;BME280_pressure;Samples;Min_cycle;Max_cycle;Signal;HPM_P1;HPM_P2
2023/03/22 00:01:18;;;;;;;10.18;2.67;;;14.70;95.00;;;;;;5052446;28;20048;-71
2023/03/22 00:03:45;;;;;;;6.95;2.55;;;14.70;94.90;;;;;;5052043;28;20031;-70
2023/03/22 00:06:11;;;;;;;8.63;2.50;;;14.70;95.00;;;;;;5052262;28;20074;-71
2023/03/22 00:08:37;;;;;;;9.20;2.75;;;14.70;95.10;;;;;;5052278;28;20029;-71
2023/03/22 00:11:03;;;;;;;6.88;2.53;;;14.70;95.10;;;;;;5052010;28;20021;-71
2023/03/22 00:13:29;;;;;;;9.10;2.97;;;14.70;95.50;;;;;;5050970;28;20112;-71
2023/03/22 00:15:56;;;;;;;8.63;2.92;;;14.70;95.40;;;;;;5052300;28;20478;-71
2023/03/22 00:18:22;;;;;;;9.32;3.10;;;14.60;95.30;;;;;;5051974;28;20041;-71
2023/03/22 00:20:53;;;;;;;11.32;3.47;;;14.60;95.50;;;;;;5052212;28;20028;-71
2023/03/22 00:23:19;;;;;;;9.38;3.30;;;14.70;95.60;;;;;;5052115;28;20390;-71
2023/03/22 00:25:46;;;;;;;6.20;2.67;;;14.80;95.70;;;;;;5052089;28;20031;-71
2023/03/22 00:28:12;;;;;;;6.35;2.95;;;14.90;96.00;;;;;;5052118;28;20484;-71
2023/03/22 00:30:38;;;;;;;6.68;2.95;;;14.90;96.00;;;;;;5050810;28;20493;-70
2023/03/22 00:33:04;;;;;;;6.55;3.10;;;14.90;95.90;;;;;;5051867;28;20021;-71
2023/03/22 00:35:29;;;;;;;9.48;3.72;;;14.90;95.90;;;;;;5051899;28;20529;-71
2023/03/22 00:37:55;;;;;;;5.45;3.17;;;15.00;96.00;;;;;;5054450;28;20124;-71
2023/03/22 00:40:22;;;;;;;7.90;3.92;;;15.00;96.00;;;;;;5055831;28;20017;-71
2023/03/22 00:42:48;;;;;;;7.25;2.40;;;14.90;96.00;;;;;;5055823;28;20079;-71
2023/03/22 00:45:13;;;;;;;5.50;3.35;;;15.00;96.30;;;;;;5055732;28;20032;-71
2023/03/22 00:47:39;;;;;;;8.95;3.70;;;15.00;96.30;;;;;;5055253;28;20551;-71
2023/03/22 00:50:06;;;;;;;6.72;4.20;;;15.00;96.20;;;;;;5055657;28;20379;-71
2023/03/22 00:52:32;;;;;;;6.22;3.00;;;15.00;96.20;;;;;;5055546;28;20049;-71
2023/03/22 00:54:57;;;;;;;8.65;6.55;;;15.10;96.40;;;;;;5055111;28;20028;-71
2023/03/22 00:57:23;;;;;;;4.75;2.85;;;15.00;96.30;;;;;;5055429;28;20027;-71
2023/03/22 00:59:49;;;;;;;7.70;5.68;;;15.10;96.40;;;;;;5055272;28;20044;-71
2023/03/22 01:02:16;;;;;;;9.85;5.05;;;15.10;96.70;;;;;;5055458;28;20043;-70
2023/03/22 01:04:46;;;;;;;10.15;5.45;;;15.10;96.50;;;;;;5054937;28;20084;-71
2023/03/22 01:07:16;;;;;;;5.43;3.20;;;15.00;96.50;;;;;;5055410;28;20021;-71
2023/03/22 01:09:43;;;;;;;8.77;5.00;;;15.10;96.60;;;;;;5054858;28;20029;-71
2023/03/22 01:12:09;;;;;;;6.80;5.13;;;15.20;96.60;;;;;;5055208;28;20118;-70
2023/03/22 01:14:35;;;;;;;7.35;4.68;;;15.20;96.50;;;;;;5055575;28;20020;-71
2023/03/22 01:17:00;;;;;;;8.95;5.15;;;15.20;96.60;;;;;;5055088;28;20029;-71
2023/03/22 01:19:26;;;;;;;6.95;5.40;;;15.10;96.60;;;;;;5054897;28;20021;-71
2023/03/22 01:21:52;;;;;;;8.75;5.07;;;15.20;96.60;;;;;;5054970;28;20511;-71
2023/03/22 01:24:18;;;;;;;6.80;4.63;;;15.20;96.60;;;;;;5054698;28;20029;-71
2023/03/22 01:26:44;;;;;;;7.45;5.72;;;15.20;96.60;;;;;;5054836;28;20032;-71
2023/03/22 01:29:10;;;;;;;3.95;2.60;;;15.20;96.60;;;;;;5055066;28;20053;-71
2023/03/22 01:31:35;;;;;;;5.75;3.38;;;15.20;96.60;;;;;;5054869;28;20036;-71
2023/03/22 01:34:01;;;;;;;5.43;2.85;;;15.20;96.50;;;;;;5054759;28;20478;-71
2023/03/22 01:36:26;;;;;;;5.47;3.75;;;15.20;96.50;;;;;;5054827;28;20474;-71
2023/03/22 01:38:52;;;;;;;7.85;5.70;;;15.30;96.50;;;;;;5054436;28;20394;-71
2023/03/22 01:41:17;;;;;;;4.10;2.00;;;15.20;96.50;;;;;;5054478;28;20021;-71
2023/03/22 01:43:43;;;;;;;5.30;2.90;;;15.20;96.60;;;;;;5054630;28;20029;-71
2023/03/22 01:46:08;;;;;;;7.72;4.45;;;15.20;96.50;;;;;;5054414;28;20070;-71
2023/03/22 01:48:47;;;;;;;4.20;2.42;;;15.20;96.50;;;;;;5053740;28;20513;-71
2023/03/22 01:51:17;;;;;;;5.30;2.45;;;15.30;96.50;;;;;;5054221;28;20107;-71
2023/03/22 01:53:49;;;;;;;4.47;2.90;;;15.30;96.50;;;;;;5054335;28;20025;-71
2023/03/22 01:56:20;;;;;;;4.93;2.00;;;15.30;96.50;;;;;;5054385;28;20379;-71
2023/03/22 01:58:48;;;;;;;2.58;1.40;;;15.30;96.40;;;;;;5054243;28;20098;-71
2023/03/22 02:01:13;;;;;;;4.18;1.98;;;15.40;96.50;;;;;;5054192;28;20029;-72
2023/03/22 02:03:50;;;;;;;6.55;2.40;;;15.40;96.40;;;;;;5054033;28;20489;-71
2023/03/22 02:06:17;;;;;;;2.95;2.05;;;15.40;96.30;;;;;;5054296;28;20024;-71
2023/03/22 02:08:43;;;;;;;2.72;1.30;;;15.40;96.30;;;;;;5054380;28;20078;-71
2023/03/22 02:11:14;;;;;;;3.88;1.73;;;15.40;96.30;;;;;;5053993;28;20526;-71
2023/03/22 02:13:49;;;;;;;5.03;1.77;;;15.40;96.30;;;;;;5054046;28;20025;-71
2023/03/22 02:16:23;;;;;;;3.55;1.98;;;15.50;96.30;;;;;;5053914;28;20052;-71
2023/03/22 02:19:35;;;;;;;4.63;2.67;;;15.40;96.20;;;;;;5053938;28;20040;-71
2023/03/22 02:22:08;;;;;;;3.30;1.55;;;15.40;96.20;;;;;;5053594;28;20017;-71
2023/03/22 02:24:44;;;;;;;4.10;2.25;;;15.40;96.30;;;;;;5053887;28;20371;-71
2023/03/22 02:27:28;;;;;;;7.30;3.42;;;15.40;96.20;;;;;;5053769;28;20025;-71
2023/03/22 02:30:18;;;;;;;5.35;2.95;;;15.40;96.20;;;;;;5054110;28;20033;-71
2023/03/22 02:33:13;;;;;;;4.95;2.75;;;15.40;96.20;;;;;;5053755;28;20059;-71
2023/03/22 02:35:50;;;;;;;7.03;1.67;;;15.40;96.20;;;;;;4998965;28;20061;-71
2023/03/22 02:38:41;;;;;;;5.38;2.80;;;15.40;96.20;;;;;;5053593;28;20029;-71
2023/03/22 02:41:17;;;;;;;3.65;1.90;;;15.40;96.20;;;;;;5053370;28;20041;-71
2023/03/22 02:44:05;;;;;;;5.60;2.90;;;15.40;96.20;;;;;;5053575;28;20120;-71
2023/03/22 02:46:47;;;;;;;4.82;2.10;;;15.40;96.50;;;;;;5053375;28;20553;-71
2023/03/22 02:49:40;;;;;;;4.25;2.30;;;15.40;96.20;;;;;;5051094;28;20471;-71
2023/03/22 02:52:16;;;;;;;;;;;15.40;96.20;;;;;;5053300;28;20021;-71
2023/03/22 02:54:51;;;;;;;4.45;2.92;;;15.40;96.20;;;;;;5051374;28;19909;-71
2023/03/22 02:57:28;;;;;;;3.65;1.50;;;15.40;96.10;;;;;;5052339;28;20398;-71
2023/03/22 02:59:57;;;;;;;2.50;1.50;;;15.40;96.20;;;;;;5052549;28;20033;-71
2023/03/22 03:02:26;;;;;;;4.10;1.90;;;15.30;96.10;;;;;;5052422;28;20028;-71
2023/03/22 03:04:54;;;;;;;5.55;3.05;;;15.40;96.10;;;;;;5052833;28;20037;-71
2023/03/22 03:07:26;;;;;;;3.05;1.45;;;15.40;96.10;;;;;;5053021;28;20103;-71
2023/03/22 03:09:52;;;;;;;5.43;2.38;;;15.40;96.10;;;;;;5053118;28;20021;-71
2023/03/22 03:12:23;;;;;;;3.88;2.03;;;15.30;96.00;;;;;;5053015;28;20386;-71
2023/03/22 03:14:49;;;;;;;4.35;1.80;;;15.40;96.10;;;;;;5053105;28;20021;-71
2023/03/22 03:17:33;;;;;;;5.32;2.15;;;15.30;96.00;;;;;;5052780;28;20017;-71
2023/03/22 03:20:16;;;;;;;3.22;1.35;;;15.40;96.00;;;;;;5052564;28;20029;-71
2023/03/22 03:23:06;;;;;;;4.38;1.85;;;15.40;96.00;;;;;;5052834;28;20517;-71
2023/03/22 03:25:57;;;;;;;2.97;1.50;;;15.30;96.00;;;;;;5051526;28;20025;-71
2023/03/22 03:28:48;;;;;;;5.18;2.25;;;15.40;96.00;;;;;;5052611;28;20430;-71
2023/03/22 03:31:27;;;;;;;4.70;2.47;;;15.30;96.00;;;;;;5052759;28;20029;-71
2023/03/22 03:34:18;;;;;;;6.40;2.25;;;15.30;95.90;;;;;;5052253;28;20033;-71
2023/03/22 03:36:55;;;;;;;4.90;2.33;;;15.30;96.00;;;;;;5051488;28;20044;-71
2023/03/22 03:39:24;;;;;;;3.38;1.60;;;15.30;96.00;;;;;;5052844;28;20500;-71
2023/03/22 03:41:52;;;;;;;7.25;2.20;;;15.30;96.00;;;;;;5052512;28;20498;-71
2023/03/22 03:44:18;;;;;;;3.55;1.90;;;15.20;95.90;;;;;;5052481;28;20492;-71
2023/03/22 03:46:45;;;;;;;5.82;3.10;;;15.30;95.90;;;;;;5052494;28;20071;-71
2023/03/22 03:49:13;;;;;;;4.93;2.22;;;15.20;95.80;;;;;;5052055;28;20486;-71
2023/03/22 03:51:51;;;;;;;5.47;1.75;;;15.20;96.00;;;;;;5052459;28;20028;-71
2023/03/22 03:54:17;;;;;;;3.97;2.20;;;15.20;96.00;;;;;;5052457;28;20036;-71
2023/03/22 03:56:43;;;;;;;4.82;1.80;;;15.30;95.90;;;;;;5052572;28;20025;-71
2023/03/22 03:59:09;;;;;;;4.82;1.40;;;15.20;95.90;;;;;;5052026;28;20083;-71
2023/03/22 04:01:35;;;;;;;5.57;1.90;;;15.20;96.00;;;;;;5052321;28;20406;-71
2023/03/22 04:04:01;;;;;;;6.38;2.03;;;15.20;95.90;;;;;;5051881;28;20033;-71
2023/03/22 04:06:26;;;;;;;5.05;1.60;;;15.20;95.90;;;;;;5052352;28;20017;-71
2023/03/22 04:08:52;;;;;;;3.40;1.55;;;15.20;95.90;;;;;;5052235;28;20032;-71
2023/03/22 04:11:19;;;;;;;6.55;2.13;;;15.20;96.00;;;;;;5052361;28;20033;-71
2023/03/22 04:13:44;;;;;;;6.25;1.77;;;15.20;95.90;;;;;;5056166;28;20017;-71
2023/03/22 04:16:10;;;;;;;4.57;1.50;;;15.20;96.00;;;;;;5054918;28;20043;-71
2023/03/22 04:18:35;;;;;;;4.55;1.55;;;15.20;95.90;;;;;;5056155;28;20068;-72
2023/03/22 04:21:02;;;;;;;5.07;1.65;;;15.20;96.00;;;;;;5055678;28;20056;-71
2023/03/22 04:23:27;;;;;;;5.38;1.83;;;15.20;95.90;;;;;;5055898;28;20025;-71
2023/03/22 04:25:53;;;;;;;5.70;1.33;;;15.20;95.80;;;;;;5056039;28;20492;-71
2023/03/22 04:28:19;;;;;;;5.47;1.60;;;15.20;95.90;;;;;;5055551;28;20017;-71
2023/03/22 04:30:49;;;;;;;4.57;1.65;;;15.10;95.70;;;;;;5055887;28;20036;-71
2023/03/22 04:33:15;;;;;;;4.68;1.55;;;15.10;95.80;;;;;;5055888;28;20018;-71
2023/03/22 04:35:40;;;;;;;3.72;1.45;;;15.10;95.80;;;;;;5055808;28;20430;-71
2023/03/22 04:38:06;;;;;;;4.93;1.30;;;15.20;95.80;;;;;;5056014;28;20037;-71
2023/03/22 04:40:35;;;;;;;5.20;1.65;;;15.10;95.90;;;;;;5055936;28;20470;-71
2023/03/22 04:43:02;;;;;;;4.10;1.52;;;15.10;95.70;;;;;;5055759;28;20108;-71
2023/03/22 04:45:31;;;;;;;2.80;1.00;;;15.20;95.90;;;;;;5055368;28;20032;-71
2023/03/22 04:47:58;;;;;;;3.35;1.15;;;15.20;95.80;;;;;;5055543;28;20025;-71
2023/03/22 04:50:26;;;;;;;4.20;1.30;;;15.20;95.70;;;;;;5055356;28;20439;-71
2023/03/22 04:52:52;;;;;;;5.18;1.60;;;15.20;95.70;;;;;;5050967;28;20028;-71
2023/03/22 04:55:18;;;;;;;3.13;1.20;;;15.20;95.70;;;;;;5041030;28;20025;-71
2023/03/22 04:57:43;;;;;;;4.47;1.38;;;15.20;95.60;;;;;;5047953;28;20025;-71
2023/03/22 05:00:10;;;;;;;2.78;0.98;;;15.20;95.70;;;;;;5042616;28;20033;-71
2023/03/22 05:02:39;;;;;;;3.80;1.40;;;15.20;95.70;;;;;;5053259;28;20070;-71
2023/03/22 05:05:05;;;;;;;3.92;1.20;;;15.20;95.60;;;;;;5049315;28;20024;-71
2023/03/22 05:07:31;;;;;;;4.25;1.55;;;15.20;95.60;;;;;;5035382;28;20057;-71
2023/03/22 05:09:57;;;;;;;4.72;1.17;;;15.20;95.60;;;;;;5054970;28;20057;-71
2023/03/22 05:12:22;;;;;;;6.75;1.52;;;15.20;95.60;;;;;;5044105;28;20029;-71
2023/03/22 05:14:48;;;;;;;2.50;1.13;;;15.10;95.50;;;;;;5047311;28;20025;-71
2023/03/22 05:17:13;;;;;;;3.75;1.33;;;15.10;95.50;;;;;;5043677;28;20099;-71
2023/03/22 05:19:39;;;;;;;4.53;0.93;;;15.10;95.50;;;;;;5066929;28;20111;-71
2023/03/22 05:22:04;;;;;;;4.38;1.05;;;15.20;95.60;;;;;;5053243;28;20060;-71
2023/03/22 05:24:30;;;;;;;3.40;1.10;;;15.20;95.50;;;;;;5032633;28;20128;-71
2023/03/22 05:26:59;;;;;;;4.18;1.27;;;15.20;95.30;;;;;;5036402;28;20057;-71
2023/03/22 05:29:26;;;;;;;3.92;1.20;;;15.20;95.30;;;;;;5034416;28;20033;-71
2023/03/22 05:31:52;;;;;;;5.25;1.20;;;15.10;95.30;;;;;;5034453;28;20044;-71
2023/03/22 05:34:19;;;;;;;4.00;1.27;;;15.10;95.30;;;;;;5033997;28;20479;-71
2023/03/22 05:36:45;;;;;;;8.18;1.60;;;15.10;95.50;;;;;;5034799;28;20029;-71
2023/03/22 05:39:11;;;;;;;2.85;1.20;;;15.10;95.30;;;;;;5034705;28;20040;-71
2023/03/22 05:41:36;;;;;;;5.57;1.58;;;15.10;95.40;;;;;;5034476;28;20379;-71
2023/03/22 05:44:02;;;;;;;3.75;1.30;;;15.10;95.40;;;;;;5033108;28;20067;-71
2023/03/22 05:46:28;;;;;;;5.90;1.45;;;15.10;95.40;;;;;;5034718;28;20475;-71
2023/03/22 05:48:53;;;;;;;6.47;1.25;;;15.10;95.30;;;;;;5034609;28;20032;-71
2023/03/22 05:51:19;;;;;;;4.93;1.63;;;15.10;95.30;;;;;;5034476;28;20021;-72
2023/03/22 05:53:46;;;;;;;3.70;1.25;;;15.10;95.10;;;;;;5037368;28;20037;-71
2023/03/22 05:56:12;;;;;;;4.50;1.25;;;15.10;95.20;;;;;;5053991;28;20017;-71
2023/03/22 05:58:40;;;;;;;5.43;1.48;;;15.10;95.30;;;;;;5053776;28;20049;-71
2023/03/22 06:01:10;;;;;;;7.15;1.30;;;15.10;95.20;;;;;;5052856;28;20029;-71
2023/03/22 06:03:36;;;;;;;5.78;1.38;;;15.10;95.20;;;;;;5053488;28;20021;-72
2023/03/22 06:06:05;;;;;;;4.65;1.40;;;15.00;94.70;;;;;;5053539;28;20025;-71
2023/03/22 06:08:31;;;;;;;5.00;1.27;;;15.00;94.70;;;;;;5050350;28;20390;-72
2023/03/22 06:10:57;;;;;;;4.88;1.30;;;15.00;94.70;;;;;;5046362;28;20029;-72
2023/03/22 06:13:23;;;;;;;5.18;1.40;;;15.00;94.90;;;;;;5052543;28;20025;-71
2023/03/22 06:15:48;;;;;;;4.85;1.10;;;15.00;94.90;;;;;;5053874;28;20080;-72
2023/03/22 06:18:14;;;;;;;5.88;1.58;;;15.00;94.80;;;;;;5051169;28;20033;-71
2023/03/22 06:20:40;;;;;;;7.97;1.42;;;15.00;94.80;;;;;;5037809;28;20029;-71
2023/03/22 06:23:06;;;;;;;7.18;1.42;;;14.90;94.80;;;;;;5042679;28;20074;-72
2023/03/22 06:25:32;;;;;;;7.35;1.58;;;15.00;95.10;;;;;;5040414;28;20021;-71
2023/03/22 06:27:57;;;;;;;3.55;1.25;;;15.00;95.30;;;;;;5043299;28;20036;-71
2023/03/22 06:30:23;;;;;;;4.63;1.08;;;15.10;95.30;;;;;;5045606;28;20044;-71
2023/03/22 06:32:49;;;;;;;6.00;1.17;;;15.10;95.00;;;;;;5040941;28;20032;-71
2023/03/22 06:35:14;;;;;;;11.45;2.17;;;15.10;94.90;;;;;;5040315;28;20026;-73
2023/03/22 06:37:40;;;;;;;6.05;1.63;;;15.20;95.20;;;;;;5038649;28;20654;-72
2023/03/22 06:40:08;;;;;;;7.00;1.25;;;15.20;95.00;;;;;;5040727;28;20051;-72
2023/03/22 06:42:34;;;;;;;6.28;1.23;;;15.30;95.30;;;;;;5038800;28;20564;-73
2023/03/22 06:44:59;;;;;;;8.35;1.52;;;15.30;95.00;;;;;;5034751;28;20497;-72
2023/03/22 06:47:26;;;;;;;11.25;1.80;;;15.20;95.00;;;;;;5046239;28;20111;-72
2023/03/22 06:49:51;;;;;;;6.90;1.40;;;15.30;95.00;;;;;;5033774;28;20075;-73
2023/03/22 06:52:17;;;;;;;4.78;1.42;;;15.30;94.90;;;;;;5041118;28;20078;-73
2023/03/22 06:54:43;;;;;;;11.27;2.20;;;15.30;94.80;;;;;;5037176;28;20033;-71
2023/03/22 06:57:08;;;;;;;9.95;1.73;;;15.20;94.60;;;;;;5044118;28;20025;-73
2023/03/22 06:59:34;;;;;;;12.35;1.95;;;15.20;94.70;;;;;;5040016;28;20045;-72
2023/03/22 07:02:00;;;;;;;8.35;1.50;;;15.30;94.80;;;;;;5039473;28;20052;-73
2023/03/22 07:04:26;;;;;;;13.70;1.95;;;15.30;94.70;;;;;;5042226;28;20025;-73
2023/03/22 07:06:52;;;;;;;6.60;1.63;;;15.30;94.70;;;;;;5043515;28;20032;-73
2023/03/22 07:09:18;;;;;;;6.32;1.73;;;15.30;94.60;;;;;;5044294;28;20025;-73
2023/03/22 07:11:44;;;;;;;9.95;2.17;;;15.30;94.90;;;;;;5038397;28;20443;-73
2023/03/22 07:14:09;;;;;;;10.13;2.40;;;15.20;94.50;;;;;;5050341;28;20047;-72
2023/03/22 07:16:35;;;;;;;11.65;2.40;;;15.20;94.80;;;;;;5036656;28;20041;-73
2023/03/22 07:19:01;;;;;;;7.10;1.63;;;15.10;94.50;;;;;;5046580;28;20489;-73
2023/03/22 07:21:27;;;;;;;13.57;1.85;;;15.10;94.80;;;;;;5051181;28;20428;-73
2023/03/22 07:23:52;;;;;;;9.10;1.90;;;15.10;95.00;;;;;;5052713;28;20025;-73
2023/03/22 07:26:18;;;;;;;10.43;2.20;;;15.10;95.00;;;;;;5051068;28;20489;-73
2023/03/22 07:28:44;;;;;;;6.90;1.90;;;15.10;95.30;;;;;;5052274;28;20083;-73
2023/03/22 07:31:11;;;;;;;7.70;1.92;;;15.10;95.00;;;;;;5051350;28;20527;-73
2023/03/22 07:33:38;;;;;;;8.98;1.70;;;15.10;95.00;;;;;;5052454;28;20048;-73
2023/03/22 07:36:05;;;;;;;7.10;1.85;;;15.10;95.10;;;;;;5052587;28;20052;-73
2023/03/22 07:38:31;;;;;;;9.95;1.75;;;15.00;94.90;;;;;;5052165;28;20037;-73
2023/03/22 07:40:57;;;;;;;8.32;1.80;;;15.10;95.00;;;;;;5052279;28;20032;-73
2023/03/22 07:43:22;;;;;;;8.63;2.00;;;15.00;94.90;;;;;;5052381;28;20021;-73
2023/03/22 07:45:49;;;;;;;7.90;1.60;;;15.10;95.30;;;;;;5052370;28;20377;-73
2023/03/22 07:48:16;;;;;;;8.07;2.03;;;15.10;95.00;;;;;;5052090;28;20017;-73
2023/03/22 07:50:42;;;;;;;6.43;1.35;;;15.10;95.00;;;;;;5052538;28;20025;-73
2023/03/22 07:53:08;;;;;;;10.75;1.58;;;15.10;95.00;;;;;;5052526;28;20067;-73
2023/03/22 07:55:34;;;;;;;9.93;1.95;;;15.10;95.30;;;;;;5050870;28;20021;-72
2023/03/22 07:58:01;;;;;;;6.50;2.00;;;15.10;94.90;;;;;;5052314;28;20045;-73
2023/03/22 08:00:27;;;;;;;8.60;1.67;;;15.10;94.90;;;;;;5052123;28;20033;-73
2023/03/22 08:02:53;;;;;;;5.78;1.88;;;15.10;95.00;;;;;;5052296;28;20036;-73
2023/03/22 08:05:18;;;;;;;9.65;1.83;;;15.10;94.80;;;;;;5052355;28;20382;-73
2023/03/22 08:07:44;;;;;;;7.53;1.48;;;15.10;95.00;;;;;;5051968;28;20100;-73
2023/03/22 08:10:10;;;;;;;5.32;1.27;;;15.10;95.00;;;;;;5050856;28;20036;-73
2023/03/22 08:12:36;;;;;;;9.18;1.55;;;15.10;95.00;;;;;;5050858;28;20017;-73
2023/03/22 08:15:02;;;;;;;8.68;1.58;;;15.10;94.90;;;;;;5052333;28;20099;-73
2023/03/22 08:17:29;;;;;;;6.72;0.95;;;15.10;94.90;;;;;;5052122;28;20017;-73
2023/03/22 08:19:55;;;;;;;7.18;1.30;;;15.10;94.90;;;;;;5051861;28;20071;-73
2023/03/22 08:22:24;;;;;;;7.53;1.67;;;15.10;94.90;;;;;;5052183;28;20033;-73
2023/03/22 08:24:51;;;;;;;7.13;1.52;;;15.10;94.90;;;;;;5051925;28;20032;-73
2023/03/22 08:27:17;;;;;;;6.03;1.40;;;15.10;94.70;;;;;;5052141;28;20041;-73
2023/03/22 08:29:44;;;;;;;7.05;1.77;;;15.10;94.70;;;;;;5052209;28;20033;-73
2023/03/22 08:32:09;;;;;;;5.43;1.35;;;15.10;94.90;;;;;;5052113;28;20025;-73
2023/03/22 08:34:40;;;;;;;6.45;1.33;;;15.10;94.90;;;;;;5052510;28;20051;-73
2023/03/22 08:37:05;;;;;;;7.03;1.77;;;15.10;94.90;;;;;;5052129;28;20025;-73
2023/03/22 08:39:31;;;;;;;8.20;1.73;;;15.10;94.90;;;;;;5050244;28;20566;-73
2023/03/22 08:41:57;;;;;;;7.85;1.90;;;15.10;94.80;;;;;;5052088;28;20017;-73
2023/03/22 08:44:23;;;;;;;6.30;1.50;;;15.10;94.90;;;;;;5051899;28;20421;-73
2023/03/22 08:46:49;;;;;;;10.23;2.25;;;15.10;94.80;;;;;;5051866;28;20018;-73
2023/03/22 08:49:15;;;;;;;6.63;1.83;;;15.10;94.90;;;;;;5051693;28;20531;-73
2023/03/22 08:51:41;;;;;;;6.75;1.45;;;15.10;94.90;;;;;;5051646;28;20109;-73
2023/03/22 08:54:07;;;;;;;5.78;1.10;;;15.10;95.00;;;;;;5051835;28;20096;-73
2023/03/22 08:56:36;;;;;;;5.45;1.42;;;15.10;95.00;;;;;;5051825;28;20032;-73
2023/03/22 08:59:05;;;;;;;4.93;1.30;;;15.10;94.90;;;;;;5054112;28;20045;-73
2023/03/22 09:01:31;;;;;;;6.93;1.67;;;15.20;94.90;;;;;;5055521;28;20398;-73
2023/03/22 09:03:56;;;;;;;7.38;1.35;;;15.20;94.90;;;;;;5055308;28;20462;-73
2023/03/22 09:06:24;;;;;;;6.00;1.42;;;15.10;94.90;;;;;;5055053;28;20025;-73
2023/03/22 09:08:51;;;;;;;6.70;1.50;;;15.20;94.90;;;;;;5055333;28;20033;-73
2023/03/22 09:11:17;;;;;;;6.50;1.92;;;15.20;94.90;;;;;;5055476;28;20013;-73
2023/03/22 09:13:43;;;;;;;10.70;1.80;;;15.20;94.90;;;;;;5055762;28;20029;-73
2023/03/22 09:16:09;;;;;;;5.93;1.30;;;15.20;95.00;;;;;;5055107;28;20024;-73
2023/03/22 09:18:36;;;;;;;8.63;1.73;;;15.20;95.00;;;;;;5054957;28;20029;-73
2023/03/22 09:21:02;;;;;;;7.13;1.35;;;15.20;95.00;;;;;;5054766;28;20033;-73
2023/03/22 09:23:29;;;;;;;6.22;1.20;;;15.20;94.90;;;;;;5055220;28;20021;-73
2023/03/22 09:25:55;;;;;;;4.07;1.33;;;15.20;94.90;;;;;;5054820;28;20021;-73
2023/03/22 09:28:20;;;;;;;5.45;1.60;;;15.20;94.90;;;;;;5055030;28;20031;-73
2023/03/22 09:30:46;;;;;;;7.22;1.38;;;15.20;94.90;;;;;;5053530;28;20390;-73
2023/03/22 09:33:11;;;;;;;5.57;1.20;;;15.20;94.90;;;;;;5054945;28;20029;-73
2023/03/22 09:35:41;;;;;;;6.07;1.60;;;15.20;95.00;;;;;;5053069;28;20025;-73
2023/03/22 09:38:07;;;;;;;6.15;1.42;;;15.20;95.10;;;;;;5054727;28;20386;-73
2023/03/22 09:40:36;;;;;;;5.13;1.13;;;15.20;95.00;;;;;;5054668;28;20382;-73
2023/03/22 09:43:05;;;;;;;3.85;1.15;;;15.20;95.00;;;;;;5055241;28;20021;-73
2023/03/22 09:45:38;;;;;;;4.57;1.38;;;15.20;95.00;;;;;;5054546;28;20508;-73
2023/03/22 09:48:36;;;;;;;5.88;1.45;;;15.20;95.00;;;;;;5054683;28;20108;-73
2023/03/22 09:51:04;;;;;;;6.75;1.42;;;15.20;95.00;;;;;;5054474;28;20025;-73
2023/03/22 09:53:31;;;;;;;5.22;1.17;;;15.20;95.00;;;;;;5054389;28;20029;-73
2023/03/22 09:56:21;;;;;;;4.18;1.10;;;15.20;95.00;;;;;;5054895;28;20024;-73
2023/03/22 09:59:22;;;;;;;5.30;1.30;;;15.30;95.00;;;;;;5054399;28;20486;-73
2023/03/22 10:02:03;;;;;;;6.95;1.33;;;15.20;95.20;;;;;;5054038;28;20033;-73
2023/03/22 10:04:39;;;;;;;5.38;1.35;;;15.20;95.10;;;;;;5054426;28;20385;-73
2023/03/22 10:07:32;;;;;;;5.38;1.17;;;15.30;95.00;;;;;;5054149;28;20064;-73
2023/03/22 10:10:06;;;;;;;;;;;15.30;95.70;;;;;;5054046;28;20021;-73
2023/03/22 10:12:44;;;;;;;6.05;1.33;;;15.20;96.00;;;;;;5054022;28;20382;-73
2023/03/22 10:15:27;;;;;;;6.82;1.30;;;15.20;96.60;;;;;;5053952;28;20025;-73
2023/03/22 10:17:55;;;;;;;6.10;1.60;;;15.20;96.20;;;;;;5053799;28;20029;-73
2023/03/22 10:20:21;;;;;;;5.05;1.38;;;15.20;96.10;;;;;;5053723;28;20493;-73
2023/03/22 10:22:47;;;;;;;4.88;1.02;;;15.20;96.10;;;;;;5053947;28;20025;-73
2023/03/22 10:25:20;;;;;;;5.45;1.30;;;15.20;96.00;;;;;;5053753;28;20031;-73
2023/03/22 10:27:49;;;;;;;3.45;0.90;;;15.20;95.80;;;;;;5053691;28;20501;-73
2023/03/22 10:30:21;;;;;;;3.38;1.25;;;15.20;95.80;;;;;;5053800;28;20147;-73
2023/03/22 10:33:03;;;;;;;6.10;1.67;;;15.20;95.70;;;;;;5054070;28;20040;-73
2023/03/22 10:35:30;;;;;;;;;;;15.20;95.70;;;;;;5053861;28;20111;-73
2023/03/22 10:38:00;;;;;;;4.75;1.15;;;15.20;95.60;;;;;;5053703;28;20003;-73
2023/03/22 10:40:30;;;;;;;4.70;1.20;;;15.20;95.60;;;;;;5053734;28;20025;-73
2023/03/22 10:43:02;;;;;;;4.30;0.82;;;15.20;95.60;;;;;;5053327;28;20035;-73
2023/03/22 10:45:29;;;;;;;;;;;15.20;95.60;;;;;;5054045;28;20078;-73
2023/03/22 10:48:01;;;;;;;5.57;1.27;;;15.20;95.50;;;;;;5052950;28;19905;-73
2023/03/22 10:50:36;;;;;;;2.63;1.08;;;15.20;95.50;;;;;;5053550;28;20017;-73
2023/03/22 10:53:14;;;;;;;3.75;1.25;;;15.20;95.50;;;;;;5053458;28;20033;-73
2023/03/22 10:55:41;;;;;;;4.50;1.20;;;15.20;95.50;;;;;;5053158;28;20518;-73
2023/03/22 10:58:12;;;;;;;4.97;1.30;;;15.20;95.60;;;;;;5051879;28;20036;-73
2023/03/22 11:00:47;;;;;;;4.25;1.17;;;15.30;95.60;;;;;;5053268;28;20037;-73
2023/03/22 11:03:36;;;;;;;5.22;0.98;;;15.20;95.50;;;;;;5052835;28;20082;-73
2023/03/22 11:06:09;;;;;;;6.47;1.05;;;15.20;95.40;;;;;;5053039;28;20507;-73
2023/03/22 11:08:49;;;;;;;4.68;1.50;;;15.30;95.50;;;;;;5052965;28;20374;-73
2023/03/22 11:11:23;;;;;;;3.45;0.73;;;15.30;95.60;;;;;;5051750;28;20106;-73
2023/03/22 11:14:05;;;;;;;4.20;1.02;;;15.30;95.50;;;;;;5052915;28;20021;-73
2023/03/22 11:16:39;;;;;;;5.07;1.27;;;15.30;95.60;;;;;;5052583;28;20029;-73
2023/03/22 11:19:05;;;;;;;2.83;0.63;;;15.30;95.50;;;;;;5052643;28;20036;-74
2023/03/22 11:21:32;;;;;;;5.93;1.48;;;15.30;95.50;;;;;;5050935;28;20021;-74
2023/03/22 11:24:01;;;;;;;5.80;1.35;;;15.30;95.50;;;;;;5040852;28;20021;-74
2023/03/22 11:26:33;;;;;;;5.50;0.93;;;15.40;95.40;;;;;;5041712;28;20034;-74
2023/03/22 11:29:16;;;;;;;6.47;1.07;;;15.40;95.40;;;;;;5045377;28;20040;-74
2023/03/22 11:31:53;;;;;;;4.63;1.33;;;15.40;95.40;;;;;;5044009;28;20038;-73
2023/03/22 11:34:21;;;;;;;4.25;1.40;;;15.40;95.50;;;;;;5039332;28;20490;-73
2023/03/22 11:36:55;;;;;;;5.35;1.60;;;15.40;95.50;;;;;;5048779;28;20027;-73
2023/03/22 11:39:22;;;;;;;5.38;1.27;;;15.40;95.60;;;;;;5043945;28;20041;-74
2023/03/22 11:41:47;;;;;;;3.45;1.05;;;15.40;95.40;;;;;;5041841;28;20017;-74
2023/03/22 11:44:17;;;;;;;5.55;1.73;;;15.40;95.50;;;;;;5039736;28;20099;-74
2023/03/22 11:46:59;;;;;;;4.13;1.40;;;15.40;95.90;;;;;;5046019;28;20063;-74
2023/03/22 11:49:45;;;;;;;9.52;2.00;;;15.40;96.20;;;;;;5039400;28;20021;-75
2023/03/22 11:52:21;;;;;;;8.63;1.67;;;15.40;96.40;;;;;;5045265;28;20025;-74
2023/03/22 11:54:48;;;;;;;15.43;2.60;;;15.40;96.50;;;;;;5042756;28;20493;-74
2023/03/22 11:57:18;;;;;;;8.85;2.42;;;15.40;96.80;;;;;;5031090;28;20414;-74
2023/03/22 11:59:57;;;;;;;10.32;2.13;;;15.40;96.80;;;;;;5044562;28;20029;-74
2023/03/22 12:02:31;;;;;;;9.80;1.77;;;15.50;97.10;;;;;;5044717;28;20468;-74
2023/03/22 12:05:09;;;;;;;8.25;1.60;;;15.50;96.90;;;;;;5041221;28;20067;-74
2023/03/22 12:07:36;;;;;;;7.45;1.85;;;15.50;96.80;;;;;;5047819;28;20033;-74
2023/03/22 12:10:09;;;;;;;9.60;1.85;;;15.50;96.90;;;;;;5050408;28;20028;-74
2023/03/22 12:12:45;;;;;;;5.72;1.45;;;15.60;96.80;;;;;;5042595;28;20036;-74
2023/03/22 12:15:21;;;;;;;7.45;1.58;;;15.60;96.70;;;;;;5030249;28;20040;-74
2023/03/22 12:18:01;;;;;;;6.50;1.52;;;15.60;96.80;;;;;;5037954;28;21767;-74
2023/03/22 12:20:52;;;;;;;4.82;1.20;;;15.60;96.80;;;;;;5037218;28;20356;-73
2023/03/22 12:23:20;;;;;;;9.55;2.03;;;15.60;96.80;;;;;;5033023;28;20026;-72
2023/03/22 12:25:52;;;;;;;8.63;1.60;;;15.60;96.80;;;;;;5036648;28;20116;-70
2023/03/22 12:28:20;;;;;;;;;;;15.60;96.90;;;;;;5033509;28;20470;-70
2023/03/22 12:30:51;;;;;;;7.72;2.28;;;15.60;96.90;;;;;;5037442;28;19913;-70
2023/03/22 12:33:30;;;;;;;7.67;2.20;;;15.60;97.00;;;;;;5038416;28;20051;-70
2023/03/22 12:36:02;;;;;;;13.13;2.58;;;15.60;97.30;;;;;;5036441;28;20382;-71
2023/03/22 12:38:55;;;;;;;8.40;2.80;;;15.60;98.00;;;;;;5042958;28;20048;-71
2023/03/22 12:41:25;;;;;;;15.18;2.88;;;15.70;97.80;;;;;;5036708;28;20049;-71
2023/03/22 12:43:54;;;;;;;12.32;2.45;;;15.70;98.00;;;;;;5040986;28;20024;-70
2023/03/22 12:46:25;;;;;;;8.55;1.98;;;15.80;98.00;;;;;;5046255;28;20029;-71
2023/03/22 12:49:08;;;;;;;9.68;2.25;;;15.80;97.90;;;;;;5039776;28;20025;-71
2023/03/22 12:51:35;;;;;;;16.30;2.47;;;15.80;98.50;;;;;;5040249;28;20459;-71
2023/03/22 12:54:01;;;;;;;9.70;2.53;;;15.90;99.30;;;;;;5037569;28;20048;-71
2023/03/22 12:56:41;;;;;;;10.38;2.60;;;15.90;98.30;;;;;;5036549;28;20414;-71
2023/03/22 12:59:44;;;;;;;10.73;2.20;;;15.90;98.80;;;;;;5038048;28;20477;-70
2023/03/22 13:02:15;;;;;;;6.78;1.80;;;15.90;98.50;;;;;;4959471;28;20050;-71